| time (UTC) | temp F | wind direction | speed MPH | gust MPH | rain 1hr in | rain 24hr in | rain mn in | humidity % | barometer mb |
| 20260502151538 | 48 | 111 | 4.0 | 8.0 | 0.00 | 0.00 | 0.00 | 54 | 1021.1 |
| 20260502123044 | 34 | 107 | 6.0 | 8.0 | 0.00 | 0.00 | 0.00 | 70 | 1020.8 |
| 20260502121544 | 34 | 73 | 5.0 | 8.0 | 0.00 | 0.00 | 0.00 | 70 | 1020.7 |
| 20260502114539 | 34 | 73 | 5.0 | 8.0 | 0.00 | 0.00 | 0.00 | 70 | 1020.8 |
| 20260502113039 | 34 | 82 | 5.0 | 7.0 | 0.00 | 0.00 | 0.00 | 69 | 1020.8 |
| 20260502111554 | 35 | 100 | 6.0 | 11.0 | 0.00 | 0.00 | 0.00 | 68 | 1020.8 |
| 20260502110041 | 35 | 74 | 2.0 | 4.0 | 0.00 | 0.00 | 0.00 | 67 | 1020.9 |
| 20260502104540 | 35 | 105 | 6.0 | 9.0 | 0.00 | 0.00 | 0.00 | 67 | 1020.9 |
| 20260502103052 | 36 | 75 | 6.0 | 9.0 | 0.00 | 0.00 | 0.00 | 67 | 1020.9 |
| 20260502101538 | 36 | 69 | 3.0 | 5.0 | 0.00 | 0.00 | 0.00 | 66 | 1020.9 |
| 20260502071536 | 41 | 126 | 3.0 | 6.0 | 0.00 | 0.00 | 0.00 | 57 | 1020.8 |
| 20260502070040 | 42 | 111 | 3.0 | 6.0 | 0.00 | 0.00 | 0.00 | 57 | 1020.7 |
| 20260502064539 | 42 | 89 | 4.0 | 7.0 | 0.00 | 0.00 | 0.00 | 55 | 1020.7 |
| 20260502063039 | 43 | 107 | 6.0 | 8.0 | 0.00 | 0.00 | 0.00 | 55 | 1020.6 |
| 20260502061537 | 43 | 109 | 3.0 | 9.0 | 0.00 | 0.00 | 0.00 | 54 | 1020.6 |
| 20260502060035 | 44 | 134 | 7.0 | 11.0 | 0.00 | 0.00 | 0.00 | 54 | 1020.5 |
| 20260502054543 | 45 | 127 | 4.0 | 8.0 | 0.00 | 0.00 | 0.00 | 53 | 1020.6 |
| 20260502053039 | 45 | 125 | 5.0 | 10.0 | 0.00 | 0.00 | 0.00 | 52 | 1020.5 |
| 20260502051539 | 46 | 133 | 4.0 | 12.0 | 0.00 | 0.00 | 0.00 | 52 | 1020.4 |
| 20260502050036 | 46 | 136 | 7.0 | 11.0 | 0.00 | 0.00 | 0.00 | 51 | 1020.5 |
| 20260502044541 | 46 | 114 | 7.0 | 13.0 | 0.00 | 0.00 | 0.00 | 50 | 1020.5 |
| 20260502043040 | 47 | 131 | 11.0 | 16.0 | 0.00 | 0.00 | 0.00 | 50 | 1020.5 |
| 20260502041540 | 47 | 118 | 9.0 | 14.0 | 0.00 | 0.00 | 0.00 | 49 | 1020.4 |
| 20260502040039 | 48 | 108 | 8.0 | 13.0 | 0.00 | 0.00 | 0.00 | 47 | 1020.3 |
| 20260502034536 | 50 | 135 | 10.0 | 13.0 | 0.00 | 0.00 | 0.00 | 46 | 1020.1 |
| 20260502033046 | 52 | 145 | 9.0 | 11.0 | 0.00 | 0.00 | 0.00 | 42 | 1019.9 |
| 20260502031539 | 53 | 155 | 5.0 | 10.0 | 0.00 | 0.00 | 0.00 | 40 | 1019.7 |
| 20260502030040 | 55 | 63 | 1.0 | 3.0 | 0.00 | 0.00 | 0.00 | 39 | 1019.5 |
| 20260502024537 | 56 | 0 | 3.0 | 10.0 | 0.00 | 0.00 | 0.00 | 35 | 1019.1 |
| 20260502023037 | 57 | 265 | 6.0 | 12.0 | 0.00 | 0.00 | 0.00 | 35 | 1018.8 |
| 20260502021535 | 60 | 233 | 4.0 | 9.0 | 0.00 | 0.00 | 0.00 | 35 | 1018.7 |
| 20260502020039 | 62 | 253 | 3.0 | 7.0 | 0.00 | 0.00 | 0.00 | 32 | 1018.6 |
| 20260502014544 | 64 | 249 | 4.0 | 8.0 | 0.00 | 0.00 | 0.00 | 31 | 1018.6 |
| 20260502013044 | 64 | 272 | 3.0 | 7.0 | 0.00 | 0.00 | 0.00 | 30 | 1018.6 |
| 20260502011536 | 64 | 224 | 3.0 | 7.0 | 0.00 | 0.00 | 0.00 | 29 | 1018.5 |
| 20260502010047 | 65 | 322 | 0.0 | 7.0 | 0.00 | 0.00 | 0.00 | 28 | 1018.6 |
| 20260502004553 | 64 | 341 | 2.0 | 5.0 | 0.00 | 0.00 | 0.00 | 25 | 1018.6 |
| 20260502003037 | 65 | 286 | 3.0 | 10.0 | 0.00 | 0.00 | 0.00 | 26 | 1018.6 |
| 20260502001536 | 66 | 316 | 4.0 | 10.0 | 0.00 | 0.00 | 0.00 | 26 | 1018.5 |
| 20260502000052 | 65 | 267 | 4.0 | 10.0 | 0.00 | 0.00 | 0.00 | 23 | 1018.7 |
| 20260501234540 | 66 | 305 | 2.0 | 6.0 | 0.00 | 0.00 | 0.00 | 24 | 1018.8 |
| 20260501233041 | 66 | 315 | 4.0 | 13.0 | 0.00 | 0.00 | 0.00 | 22 | 1018.7 |
| 20260501231540 | 66 | 276 | 1.0 | 7.0 | 0.00 | 0.00 | 0.00 | 28 | 1018.7 |
| 20260501230036 | 66 | 96 | 3.0 | 7.0 | 0.00 | 0.00 | 0.00 | 22 | 1018.8 |
| 20260501224542 | 65 | 97 | 2.0 | 8.0 | 0.00 | 0.00 | 0.00 | 28 | 1018.9 |
| 20260501223040 | 65 | 232 | 3.0 | 8.0 | 0.00 | 0.00 | 0.00 | 22 | 1018.9 |
| 20260501221538 | 66 | 223 | 3.0 | 10.0 | 0.00 | 0.00 | 0.00 | 23 | 1019.1 |
| 20260501220042 | 63 | 45 | 3.0 | 6.0 | 0.00 | 0.00 | 0.00 | 22 | 1019.4 |
| 20260501214537 | 64 | 202 | 2.0 | 7.0 | 0.00 | 0.00 | 0.00 | 21 | 1019.7 |
| 20260501213044 | 65 | 246 | 3.0 | 11.0 | 0.00 | 0.00 | 0.00 | 21 | 1019.7 |
| 20260501211541 | 62 | 266 | 1.0 | 5.0 | 0.00 | 0.00 | 0.00 | 26 | 1019.8 |
| 20260501210040 | 63 | 174 | 4.0 | 12.0 | 0.00 | 0.00 | 0.00 | 23 | 1019.9 |
| 20260501204546 | 63 | 94 | 3.0 | 8.0 | 0.00 | 0.00 | 0.00 | 24 | 1020.1 |
| 20260501203036 | 61 | 252 | 2.0 | 6.0 | 0.00 | 0.00 | 0.00 | 26 | 1020.1 |
| 20260501201536 | 63 | 224 | 4.0 | 10.0 | 0.00 | 0.00 | 0.00 | 24 | 1020.3 |
| 20260501200035 | 63 | 259 | 3.0 | 10.0 | 0.00 | 0.00 | 0.00 | 28 | 1020.3 |
| 20260501194543 | 62 | 175 | 4.0 | 10.0 | 0.00 | 0.00 | 0.00 | 27 | 1020.4 |
| 20260501193038 | 60 | 201 | 2.0 | 7.0 | 0.00 | 0.00 | 0.00 | 27 | 1020.7 |
| 20260501191538 | 58 | 34 | 2.0 | 11.0 | 0.00 | 0.00 | 0.00 | 26 | 1020.8 |
| 20260501190036 | 58 | 355 | 3.0 | 12.0 | 0.00 | 0.00 | 0.00 | 34 | 1021.0 |
| 20260501184535 | 58 | 13 | 4.0 | 11.0 | 0.00 | 0.00 | 0.00 | 33 | 1020.9 |
| 20260501183041 | 59 | 0 | 2.0 | 9.0 | 0.00 | 0.00 | 0.00 | 28 | 1021.2 |
| 20260501181539 | 59 | 360 | 2.0 | 9.0 | 0.00 | 0.00 | 0.00 | 38 | 1021.3 |
| 20260501180041 | 59 | 126 | 5.0 | 16.0 | 0.00 | 0.00 | 0.00 | 32 | 1021.4 |
| 20260501174552 | 58 | 87 | 5.0 | 12.0 | 0.00 | 0.00 | 0.00 | 34 | 1021.5 |
| 20260501173047 | 57 | 35 | 2.0 | 10.0 | 0.00 | 0.00 | 0.00 | 35 | 1021.5 |
| 20260501171536 | 55 | 0 | 0.0 | 9.0 | 0.00 | 0.00 | 0.00 | 33 | 1021.7 |
| 20260501170035 | 55 | 58 | 1.0 | 4.0 | 0.00 | 0.00 | 0.00 | 36 | 1021.7 |
| 20260501164547 | 54 | 325 | 2.0 | 5.0 | 0.00 | 0.00 | 0.00 | 36 | 1021.8 |
| 20260501163037 | 53 | 66 | 2.0 | 5.0 | 0.00 | 0.00 | 0.00 | 39 | 1021.7 |
| 20260501161536 | 53 | 21 | 0.0 | 5.0 | 0.00 | 0.00 | 0.00 | 41 | 1021.8 |
| 20260501160039 | 50 | 20 | 1.0 | 5.0 | 0.00 | 0.00 | 0.00 | 46 | 1021.8 |
| 20260501154607 | 50 | 0 | 1.0 | 5.0 | 0.00 | 0.00 | 0.00 | 49 | 1021.9 |
| 20260501153049 | 48 | 34 | 3.0 | 7.0 | 0.00 | 0.00 | 0.00 | 55 | 1022.0 |